createdAt,value
2022-09-23T00:01:03.791Z,4.49
2022-09-23T00:03:31.961Z,4.50
2022-09-23T00:06:07.114Z,4.51
2022-09-23T00:08:33.850Z,4.36
2022-09-23T00:11:14.903Z,4.38
2022-09-23T00:13:43.164Z,4.41
2022-09-23T00:16:16.833Z,4.35
2022-09-23T00:18:43.648Z,4.29
2022-09-23T00:21:13.306Z,4.24
2022-09-23T00:23:41.658Z,4.27
2022-09-23T00:26:10.954Z,4.15
2022-09-23T00:28:38.351Z,4.05
2022-09-23T00:31:10.829Z,3.95
2022-09-23T00:33:38.017Z,3.93
2022-09-23T00:36:07.623Z,3.96
2022-09-23T00:38:34.430Z,3.95
2022-09-23T00:41:02.676Z,4.08
2022-09-23T00:44:00.102Z,4.09
2022-09-23T00:46:34.400Z,4.07
2022-09-23T00:49:13.869Z,4.12
2022-09-23T00:51:47.471Z,4.11
2022-09-23T00:54:14.356Z,4.05
2022-09-23T00:56:40.992Z,3.99
2022-09-23T00:59:09.732Z,3.97
2022-09-23T01:04:07.806Z,3.98
2022-09-23T01:06:34.418Z,3.94
2022-09-23T01:09:01.055Z,3.87
2022-09-23T01:11:55.236Z,3.90
2022-09-23T01:14:36.661Z,3.93
2022-09-23T01:17:05.937Z,3.86
2022-09-23T01:20:03.572Z,3.65
2022-09-23T01:22:35.997Z,3.60
2022-09-23T01:25:31.614Z,3.64
2022-09-23T01:28:16.992Z,3.60
2022-09-23T01:31:15.113Z,3.71
2022-09-23T01:34:08.023Z,3.71
2022-09-23T01:36:51.784Z,3.68
2022-09-23T01:39:21.081Z,3.71
2022-09-23T01:42:17.606Z,3.70
2022-09-23T01:44:56.860Z,3.68
2022-09-23T01:47:35.502Z,3.59
2022-09-23T01:50:32.995Z,3.54
2022-09-23T01:53:06.720Z,3.44
2022-09-23T01:55:38.369Z,3.42
2022-09-23T01:58:15.688Z,3.38
2022-09-23T02:00:51.196Z,3.34
2022-09-23T02:03:26.865Z,3.31
2022-09-23T02:06:02.556Z,3.24
2022-09-23T02:08:40.659Z,3.19
2022-09-23T02:11:10.592Z,3.17
2022-09-23T02:13:45.911Z,3.26
2022-09-23T02:16:33.912Z,3.28
2022-09-23T02:19:20.744Z,3.33
2022-09-23T02:21:52.471Z,3.33
2022-09-23T02:24:25.923Z,3.29
2022-09-23T02:26:58.186Z,3.26
2022-09-23T02:29:27.317Z,3.19
2022-09-23T02:32:13.293Z,3.18
2022-09-23T02:34:55.961Z,3.22
2022-09-23T02:37:54.255Z,3.18
2022-09-23T02:40:40.780Z,3.23
2022-09-23T02:43:19.744Z,3.17
2022-09-23T02:45:47.380Z,3.15
2022-09-23T02:48:22.960Z,3.11
2022-09-23T02:50:50.372Z,2.96
2022-09-23T02:53:17.242Z,2.92
2022-09-23T02:55:44.340Z,2.90
2022-09-23T02:58:14.008Z,2.87
2022-09-23T03:00:59.931Z,2.91
2022-09-23T03:03:49.499Z,2.84
2022-09-23T03:06:33.371Z,2.89
2022-09-23T03:09:14.004Z,2.91
2022-09-23T03:11:47.005Z,2.91
2022-09-23T03:14:28.925Z,2.89
2022-09-23T03:17:13.024Z,2.86
2022-09-23T03:19:45.475Z,2.73
2022-09-23T03:22:18.430Z,2.77
2022-09-23T03:24:50.694Z,2.71
2022-09-23T03:27:25.636Z,2.70
2022-09-23T03:29:54.053Z,2.72
2022-09-23T03:32:24.767Z,2.74
2022-09-23T03:34:53.886Z,2.74
2022-09-23T03:37:26.639Z,2.73
2022-09-23T03:40:01.676Z,2.75
2022-09-23T03:42:31.339Z,2.62
2022-09-23T03:44:58.605Z,2.66
2022-09-23T03:47:27.643Z,2.60
2022-09-23T03:49:55.001Z,2.59
2022-09-23T03:52:24.780Z,2.58
2022-09-23T03:54:52.241Z,2.64
2022-09-23T03:57:22.023Z,2.62
2022-09-23T03:59:50.581Z,2.62
2022-09-23T04:02:18.726Z,2.56
2022-09-23T04:04:45.424Z,2.51
2022-09-23T04:07:13.032Z,2.42
2022-09-23T04:09:39.788Z,2.43
2022-09-23T04:12:07.109Z,2.32
2022-09-23T04:14:33.919Z,2.38
2022-09-23T04:17:00.499Z,2.39
2022-09-23T04:19:27.127Z,2.29
2022-09-23T04:21:53.900Z,2.40
2022-09-23T04:24:20.816Z,2.43
2022-09-23T04:26:51.953Z,2.47
2022-09-23T04:29:19.056Z,2.47
2022-09-23T04:31:45.759Z,2.48
2022-09-23T04:34:12.778Z,2.40
2022-09-23T04:36:39.630Z,2.39
2022-09-23T04:39:06.466Z,2.44
2022-09-23T04:41:33.516Z,2.48
2022-09-23T04:44:00.270Z,2.45
2022-09-23T04:46:28.113Z,2.50
2022-09-23T04:48:55.052Z,2.44
2022-09-23T04:51:26.524Z,2.34
2022-09-23T04:53:54.104Z,2.37
2022-09-23T04:56:26.338Z,2.35
2022-09-23T04:58:53.520Z,2.33
2022-09-23T05:01:26.853Z,2.36
2022-09-23T05:03:56.291Z,2.33
2022-09-23T05:06:23.532Z,2.26
2022-09-23T05:08:55.037Z,2.32
2022-09-23T05:11:22.602Z,2.29
2022-09-23T05:13:51.117Z,2.25
2022-09-23T05:16:18.759Z,2.20
2022-09-23T05:18:46.328Z,2.31
2022-09-23T05:21:15.028Z,2.29
2022-09-23T05:23:42.602Z,2.28
2022-09-23T05:26:13.608Z,2.35
2022-09-23T05:28:40.617Z,2.40
2022-09-23T05:31:19.920Z,2.50
2022-09-23T05:33:51.992Z,2.61
2022-09-23T05:36:20.624Z,2.65
2022-09-23T05:38:49.331Z,2.89
2022-09-23T05:41:16.443Z,3.11
2022-09-23T05:43:43.291Z,3.15
2022-09-23T05:46:17.861Z,3.27
2022-09-23T05:48:48.177Z,3.25
2022-09-23T05:51:17.674Z,3.47
2022-09-23T05:53:48.094Z,3.48
2022-09-23T05:56:16.767Z,3.44
2022-09-23T05:58:43.978Z,3.63
2022-09-23T06:01:17.885Z,3.71
2022-09-23T06:03:52.254Z,3.90
2022-09-23T06:06:22.984Z,3.84
2022-09-23T06:08:49.553Z,3.92
2022-09-23T06:11:16.588Z,4.00
2022-09-23T06:13:43.401Z,4.16
2022-09-23T06:16:13.774Z,4.32
2022-09-23T06:18:45.229Z,4.26
2022-09-23T06:21:14.520Z,4.26
2022-09-23T06:23:42.263Z,4.55
2022-09-23T06:26:10.773Z,4.58
2022-09-23T06:28:39.285Z,4.54
2022-09-23T06:31:15.273Z,4.63
2022-09-23T06:33:43.330Z,4.86
2022-09-23T06:36:10.470Z,5.34
2022-09-23T06:38:41.424Z,6.00
2022-09-23T06:41:08.076Z,6.19
2022-09-23T06:43:34.714Z,6.16
2022-09-23T06:46:04.003Z,6.23
2022-09-23T06:48:35.155Z,6.29
2022-09-23T06:51:04.950Z,6.27
2022-09-23T06:53:32.255Z,6.37
2022-09-23T06:56:07.004Z,6.33
2022-09-23T06:58:35.843Z,6.80
2022-09-23T07:01:08.200Z,7.17
2022-09-23T07:03:35.790Z,7.33
2022-09-23T07:06:03.242Z,7.95
2022-09-23T07:08:31.076Z,8.21
2022-09-23T07:10:59.421Z,8.85
2022-09-23T07:13:27.190Z,9.06
2022-09-23T07:16:01.981Z,10.83
2022-09-23T07:18:36.724Z,13.05
2022-09-23T07:21:07.805Z,12.98
2022-09-23T07:23:34.501Z,14.68
2022-09-23T07:26:01.484Z,15.25
2022-09-23T07:28:29.134Z,15.40
2022-09-23T07:31:00.284Z,15.62
2022-09-23T07:33:33.055Z,16.16
2022-09-23T07:36:05.480Z,17.09
2022-09-23T07:38:32.111Z,17.08
2022-09-23T07:41:06.420Z,17.45
2022-09-23T07:43:33.172Z,16.50
2022-09-23T07:46:08.777Z,15.54
2022-09-23T07:48:36.423Z,15.78
2022-09-23T07:51:10.345Z,15.34
2022-09-23T07:53:37.711Z,15.40
2022-09-23T07:56:06.306Z,15.33
2022-09-23T07:58:34.497Z,15.59
2022-09-23T08:01:03.417Z,15.06
2022-09-23T08:03:30.027Z,15.37
2022-09-23T08:06:12.675Z,14.55
2022-09-23T08:08:43.368Z,14.14
2022-09-23T08:11:12.128Z,14.43
2022-09-23T08:13:38.809Z,14.84
2022-09-23T08:16:06.474Z,14.97
2022-09-23T08:18:34.045Z,14.71
2022-09-23T08:21:00.937Z,14.42
2022-09-23T08:23:27.842Z,14.39
2022-09-23T08:25:59.961Z,15.69
2022-09-23T08:28:27.891Z,16.05
2022-09-23T08:30:55.410Z,16.09
2022-09-23T08:33:23.821Z,16.53
2022-09-23T08:35:51.512Z,16.45
2022-09-23T08:38:18.855Z,16.03
2022-09-23T08:40:48.992Z,17.40
2022-09-23T08:43:45.441Z,16.92
2022-09-23T08:46:18.776Z,17.27
2022-09-23T08:48:49.135Z,17.71
2022-09-23T08:51:29.304Z,18.04
2022-09-23T08:53:56.065Z,18.08
2022-09-23T08:56:24.067Z,18.12
2022-09-23T08:59:07.511Z,18.34
2022-09-23T09:01:49.431Z,19.08
2022-09-23T09:04:25.769Z,18.15
2022-09-23T09:07:03.414Z,20.28
2022-09-23T09:09:55.220Z,19.71
2022-09-23T09:12:43.450Z,19.78
2022-09-23T09:15:25.016Z,20.06
2022-09-23T09:18:12.833Z,22.28
2022-09-23T09:20:57.744Z,22.63
2022-09-23T09:23:48.073Z,20.52
2022-09-23T09:26:21.665Z,20.39
2022-09-23T09:28:59.094Z,19.87
2022-09-23T09:31:47.679Z,19.27
2022-09-23T09:34:33.920Z,19.78
2022-09-23T09:37:06.985Z,19.80
2022-09-23T09:39:35.344Z,19.23
2022-09-23T09:42:03.540Z,20.77
2022-09-23T09:44:58.632Z,20.46
2022-09-23T09:47:40.506Z,19.79
2022-09-23T09:50:08.884Z,18.85
2022-09-23T09:52:43.040Z,19.51
2022-09-23T09:55:12.426Z,20.42
2022-09-23T09:58:01.589Z,19.73
2022-09-23T10:00:28.281Z,20.24
2022-09-23T10:03:02.862Z,22.01
2022-09-23T10:05:46.775Z,21.00
2022-09-23T10:08:22.559Z,22.54
2022-09-23T10:10:58.963Z,22.21
2022-09-23T10:13:27.258Z,21.95
2022-09-23T10:15:54.941Z,21.97
2022-09-23T10:18:48.929Z,20.90
2022-09-23T10:21:23.107Z,21.63
2022-09-23T10:23:58.030Z,20.11
2022-09-23T10:26:33.776Z,23.43
2022-09-23T10:29:20.728Z,22.33
2022-09-23T10:31:47.324Z,23.55
2022-09-23T10:34:27.368Z,22.86
2022-09-23T10:37:01.660Z,21.89
2022-09-23T10:39:47.628Z,23.09
2022-09-23T10:43:05.070Z,24.20
2022-09-23T10:45:55.282Z,24.22
2022-09-23T10:48:32.017Z,22.93
2022-09-23T10:50:59.690Z,22.83
2022-09-23T10:53:53.431Z,23.88
2022-09-23T10:56:35.978Z,25.58
2022-09-23T10:59:18.622Z,26.48
2022-09-23T11:01:51.081Z,25.27
2022-09-23T11:04:38.065Z,24.15
2022-09-23T11:07:21.874Z,23.44
2022-09-23T11:10:35.421Z,23.10
2022-09-23T11:13:33.042Z,24.05
2022-09-23T11:16:17.694Z,25.28
2022-09-23T11:19:03.207Z,24.56
2022-09-23T11:21:44.165Z,23.02
2022-09-23T11:24:35.078Z,23.57
2022-09-23T11:27:19.397Z,22.88
2022-09-23T11:29:57.950Z,22.10
2022-09-23T11:32:56.540Z,21.29
2022-09-23T11:35:27.734Z,21.47
2022-09-23T11:38:16.108Z,20.29
2022-09-23T11:40:47.057Z,19.53
2022-09-23T11:43:23.354Z,19.01
2022-09-23T11:45:59.035Z,19.65
2022-09-23T11:48:34.552Z,20.25
2022-09-23T11:51:14.919Z,19.79
2022-09-23T11:53:50.878Z,20.04
2022-09-23T11:56:34.996Z,19.88
2022-09-23T11:59:13.441Z,19.60
2022-09-23T12:01:45.803Z,19.39
2022-09-23T12:04:24.645Z,19.87
2022-09-23T12:07:01.094Z,19.82
2022-09-23T12:09:58.809Z,20.19
2022-09-23T12:12:38.533Z,20.65
2022-09-23T12:15:16.975Z,20.45
2022-09-23T12:17:43.529Z,20.69
2022-09-23T12:20:37.880Z,20.33
2022-09-23T12:23:10.836Z,20.33
2022-09-23T12:26:02.096Z,20.70
2022-09-23T12:28:45.127Z,20.83
2022-09-23T12:31:15.567Z,21.03
2022-09-23T12:33:53.577Z,19.78
2022-09-23T12:36:35.371Z,20.18
2022-09-23T12:39:15.263Z,20.19
2022-09-23T12:41:47.828Z,20.00
2022-09-23T12:44:41.233Z,20.35
2022-09-23T12:47:21.056Z,20.34
2022-09-23T12:49:48.446Z,20.05
2022-09-23T12:52:18.123Z,20.40
2022-09-23T12:54:50.139Z,20.63
2022-09-23T12:57:34.843Z,20.81
2022-09-23T13:00:12.593Z,20.42
2022-09-23T13:03:18.604Z,20.16
2022-09-23T13:06:11.542Z,20.38
2022-09-23T13:08:40.404Z,20.12
2022-09-23T13:11:19.485Z,19.87
2022-09-23T13:13:49.837Z,19.98
2022-09-23T13:16:39.357Z,19.69
2022-09-23T13:19:26.939Z,19.91
2022-09-23T13:21:53.484Z,20.02
2022-09-23T13:24:47.580Z,20.31
2022-09-23T13:27:21.952Z,19.78
2022-09-23T13:30:13.874Z,19.91
2022-09-23T13:32:48.487Z,20.12
2022-09-23T13:35:23.218Z,20.13
2022-09-23T13:37:50.447Z,20.05
2022-09-23T13:40:21.570Z,19.82
2022-09-23T13:42:56.883Z,19.77
2022-09-23T13:45:25.259Z,19.83
2022-09-23T13:47:54.624Z,19.82
2022-09-23T13:50:24.760Z,19.67
2022-09-23T13:52:57.210Z,20.41
2022-09-23T13:55:26.392Z,19.89
2022-09-23T13:58:17.277Z,20.10
2022-09-23T14:00:44.472Z,20.05
2022-09-23T14:03:36.284Z,20.45
2022-09-23T14:06:12.932Z,20.42
2022-09-23T14:08:44.050Z,20.71
2022-09-23T14:11:18.711Z,20.43
2022-09-23T14:13:48.795Z,20.62
2022-09-23T14:16:16.579Z,20.45
2022-09-23T14:18:45.667Z,20.37
2022-09-23T14:21:38.702Z,20.43
2022-09-23T14:24:12.178Z,19.93
2022-09-23T14:26:40.145Z,20.27
2022-09-23T14:29:17.038Z,20.19
2022-09-23T14:32:00.677Z,20.42
2022-09-23T14:34:51.161Z,20.23
2022-09-23T14:37:57.945Z,19.82
2022-09-23T14:40:28.932Z,19.36
2022-09-23T14:43:07.454Z,19.86
2022-09-23T14:45:37.293Z,20.15
2022-09-23T14:48:10.221Z,20.34
2022-09-23T14:50:39.509Z,20.15
2022-09-23T14:53:33.001Z,20.36
2022-09-23T14:56:08.500Z,20.45
2022-09-23T14:58:53.055Z,20.45
2022-09-23T15:01:32.576Z,20.17
2022-09-23T15:04:30.876Z,19.86
2022-09-23T15:07:16.873Z,19.81
2022-09-23T15:09:45.111Z,19.70
2022-09-23T15:12:14.690Z,19.47
2022-09-23T15:14:50.723Z,19.63
2022-09-23T15:17:23.425Z,19.16
2022-09-23T15:19:57.121Z,18.98
2022-09-23T15:22:25.158Z,18.97
2022-09-23T15:24:54.065Z,19.14
2022-09-23T15:27:34.547Z,19.18
2022-09-23T15:30:14.712Z,19.30
2022-09-23T15:32:45.700Z,19.28
2022-09-23T15:35:18.989Z,19.18
2022-09-23T15:37:47.267Z,19.00
2022-09-23T15:40:18.898Z,19.10
2022-09-23T15:42:51.148Z,19.12
2022-09-23T15:45:42.900Z,18.55
2022-09-23T15:48:23.014Z,17.86
2022-09-23T15:50:51.039Z,18.46
2022-09-23T15:53:21.781Z,18.41
2022-09-23T15:55:52.590Z,18.48
2022-09-23T15:58:20.496Z,18.59
2022-09-23T16:00:55.969Z,18.39
2022-09-23T16:03:30.220Z,18.59
2022-09-23T16:06:00.589Z,18.47
2022-09-23T16:08:28.590Z,18.20
2022-09-23T16:10:55.535Z,18.07
2022-09-23T16:13:22.251Z,18.05
2022-09-23T16:15:48.976Z,18.02
2022-09-23T16:18:15.681Z,17.99
2022-09-23T16:20:45.000Z,17.78
2022-09-23T16:23:34.118Z,17.48
2022-09-23T16:26:29.597Z,17.28
2022-09-23T16:28:58.035Z,17.17
2022-09-23T16:31:25.851Z,17.08
2022-09-23T16:33:53.517Z,16.81
2022-09-23T16:36:31.053Z,16.82
2022-09-23T16:38:59.898Z,16.77
2022-09-23T16:41:29.299Z,16.72
2022-09-23T16:43:56.299Z,16.56
2022-09-23T16:46:27.049Z,16.51
2022-09-23T16:48:57.315Z,16.24
2022-09-23T16:51:27.301Z,16.08
2022-09-23T16:53:55.948Z,15.81
2022-09-23T16:56:28.420Z,15.55
2022-09-23T16:58:56.238Z,15.41
2022-09-23T17:01:45.054Z,15.13
2022-09-23T17:04:13.043Z,14.99
2022-09-23T17:06:49.029Z,14.91
2022-09-23T17:09:18.022Z,14.78
2022-09-23T17:11:47.733Z,14.80
2022-09-23T17:14:17.461Z,14.78
2022-09-23T17:16:44.194Z,14.70
2022-09-23T17:19:12.249Z,14.68
2022-09-23T17:21:39.274Z,14.60
2022-09-23T17:24:08.856Z,14.58
2022-09-23T17:26:35.511Z,14.50
2022-09-23T17:29:02.168Z,14.20
2022-09-23T17:31:29.093Z,14.13
2022-09-23T17:33:55.892Z,14.02
2022-09-23T17:36:22.564Z,13.99
2022-09-23T17:39:02.267Z,13.85
2022-09-23T17:41:29.697Z,13.39
2022-09-23T17:43:58.466Z,13.49
2022-09-23T17:46:25.083Z,13.32
2022-09-23T17:48:55.447Z,13.41
2022-09-23T17:51:22.733Z,13.32
2022-09-23T17:53:49.952Z,13.30
2022-09-23T17:56:26.625Z,13.34
2022-09-23T17:58:54.160Z,13.32
2022-09-23T18:01:23.321Z,13.27
2022-09-23T18:03:58.019Z,13.06
2022-09-23T18:06:27.276Z,13.03
2022-09-23T18:08:55.878Z,12.96
2022-09-23T18:11:23.600Z,12.88
2022-09-23T18:13:53.220Z,12.85
2022-09-23T18:16:21.597Z,12.87
2022-09-23T18:18:52.621Z,12.91
2022-09-23T18:21:20.129Z,12.87
2022-09-23T18:23:47.453Z,12.89
2022-09-23T18:26:19.763Z,12.86
2022-09-23T18:28:47.926Z,12.73
2022-09-23T18:31:15.749Z,12.65
2022-09-23T18:33:42.537Z,12.71
2022-09-23T18:36:09.872Z,12.77
2022-09-23T18:38:36.570Z,12.77
2022-09-23T18:41:03.364Z,12.64
2022-09-23T18:43:37.523Z,12.61
2022-09-23T18:46:12.250Z,12.55
2022-09-23T18:48:57.757Z,12.52
2022-09-23T18:51:26.034Z,12.45
2022-09-23T18:53:57.537Z,12.25
2022-09-23T18:56:29.776Z,11.96
2022-09-23T18:58:56.549Z,11.83
2022-09-23T19:01:23.864Z,11.76
2022-09-23T19:03:56.122Z,11.67
2022-09-23T19:06:23.202Z,11.86
2022-09-23T19:08:52.060Z,11.83
2022-09-23T19:11:19.907Z,11.69
2022-09-23T19:13:46.754Z,11.77
2022-09-23T19:16:15.539Z,11.67
2022-09-23T19:18:46.329Z,11.44
2022-09-23T19:21:14.948Z,11.54
2022-09-23T19:23:47.574Z,11.69
2022-09-23T19:26:17.124Z,11.62
2022-09-23T19:28:49.094Z,11.60
2022-09-23T19:31:22.931Z,11.60
2022-09-23T19:33:58.432Z,11.37
2022-09-23T19:36:33.779Z,11.45
2022-09-23T19:39:03.990Z,11.46
2022-09-23T19:41:32.203Z,11.46
2022-09-23T19:44:03.172Z,11.31
2022-09-23T19:46:33.681Z,11.45
2022-09-23T19:49:01.102Z,11.48
2022-09-23T19:51:28.225Z,11.40
2022-09-23T19:53:54.941Z,11.48
2022-09-23T19:56:21.806Z,11.45
2022-09-23T19:58:54.148Z,11.49
2022-09-23T20:01:22.140Z,11.50
2022-09-23T20:03:49.597Z,11.45
2022-09-23T20:06:17.741Z,11.49
2022-09-23T20:08:44.901Z,11.51
2022-09-23T20:11:27.623Z,11.37
2022-09-23T20:14:01.659Z,11.45
2022-09-23T20:16:32.362Z,11.35
2022-09-23T20:19:00.876Z,11.12
2022-09-23T20:21:29.211Z,10.91
2022-09-23T20:23:57.032Z,10.86
2022-09-23T20:26:42.956Z,10.75
2022-09-23T20:29:10.696Z,10.82
2022-09-23T20:31:37.928Z,10.91
2022-09-23T20:34:06.921Z,10.84
2022-09-23T20:36:35.004Z,10.81
2022-09-23T20:39:05.734Z,10.80
2022-09-23T20:41:36.589Z,10.92
2022-09-23T20:44:05.864Z,10.69
2022-09-23T20:46:32.628Z,10.72
2022-09-23T20:48:59.639Z,10.58
2022-09-23T20:51:26.362Z,10.40
2022-09-23T20:53:53.162Z,10.42
2022-09-23T20:56:21.436Z,10.45
2022-09-23T20:58:50.365Z,10.41
2022-09-23T21:01:17.893Z,10.57
2022-09-23T21:03:46.971Z,10.63
2022-09-23T21:06:15.432Z,10.68
2022-09-23T21:08:43.478Z,10.75
2022-09-23T21:11:15.828Z,10.73
2022-09-23T21:13:50.478Z,10.70
2022-09-23T21:16:19.782Z,10.74
2022-09-23T21:18:47.999Z,10.75
2022-09-23T21:21:15.186Z,10.75
2022-09-23T21:23:43.478Z,10.60
2022-09-23T21:26:28.114Z,10.44
2022-09-23T21:28:58.727Z,10.47
2022-09-23T21:31:27.959Z,10.51
2022-09-23T21:33:56.803Z,10.60
2022-09-23T21:36:24.584Z,10.58
2022-09-23T21:38:51.658Z,10.41
2022-09-23T21:41:19.373Z,10.36
2022-09-23T21:43:46.056Z,10.48
2022-09-23T21:46:14.748Z,10.46
2022-09-23T21:48:42.619Z,10.47
2022-09-23T21:51:13.273Z,10.51
2022-09-23T21:53:40.891Z,10.49
2022-09-23T21:56:09.838Z,10.49
2022-09-23T21:58:37.804Z,10.54
2022-09-23T22:01:16.087Z,10.57
2022-09-23T22:03:44.290Z,10.53
2022-09-23T22:06:13.647Z,10.43
2022-09-23T22:08:42.968Z,10.39
2022-09-23T22:11:31.677Z,10.36
2022-09-23T22:14:00.482Z,10.31
2022-09-23T22:16:31.298Z,10.29
2022-09-23T22:19:00.582Z,10.17
2022-09-23T22:21:29.654Z,10.12
2022-09-23T22:23:58.359Z,10.13
2022-09-23T22:26:25.325Z,10.08
2022-09-23T22:29:10.428Z,10.04
2022-09-23T22:31:55.570Z,9.99
2022-09-23T22:34:48.555Z,9.93
2022-09-23T22:37:15.695Z,9.93
2022-09-23T22:39:42.276Z,9.83
2022-09-23T22:42:08.864Z,9.77
2022-09-23T22:44:35.645Z,9.77
2022-09-23T22:47:02.304Z,9.75
2022-09-23T22:49:32.026Z,9.77
2022-09-23T22:51:59.363Z,9.76
2022-09-23T22:54:33.405Z,9.92
2022-09-23T22:57:03.165Z,9.98
2022-09-23T22:59:30.074Z,9.91
2022-09-23T23:01:59.731Z,9.83
2022-09-23T23:04:26.997Z,9.85
2022-09-23T23:06:53.615Z,9.86
2022-09-23T23:09:20.223Z,9.88
2022-09-23T23:11:47.304Z,9.92
2022-09-23T23:14:17.161Z,9.92
2022-09-23T23:16:46.137Z,9.94
2022-09-23T23:19:16.471Z,9.80
2022-09-23T23:21:43.622Z,9.76
2022-09-23T23:24:15.313Z,9.72
2022-09-23T23:26:42.555Z,9.82
2022-09-23T23:29:11.026Z,9.85
2022-09-23T23:31:38.344Z,9.93
2022-09-23T23:34:05.919Z,9.95
2022-09-23T23:36:32.577Z,9.95
2022-09-23T23:38:59.211Z,10.01
2022-09-23T23:41:25.944Z,9.96
2022-09-23T23:43:58.376Z,9.78
2022-09-23T23:46:27.502Z,9.54
2022-09-23T23:48:55.484Z,9.66
2022-09-23T23:51:23.093Z,9.78
2022-09-23T23:53:49.737Z,9.83
2022-09-23T23:56:19.358Z,9.83
2022-09-23T23:58:46.214Z,9.87
